sensor_id;sensor_type;location;lat;lon;timestamp;P1;durP1;ratioP1;P2;durP2;ratioP2
12048;SDS011;6085;49.452;8.502;2024-03-17T00:03:39;2.20;;;1.60;;
12048;SDS011;6085;49.452;8.502;2024-03-17T00:07:41;1.67;;;1.58;;
12048;SDS011;6085;49.452;8.502;2024-03-17T00:11:43;2.20;;;2.00;;
12048;SDS011;6085;49.452;8.502;2024-03-17T00:15:46;2.63;;;1.88;;
12048;SDS011;6085;49.452;8.502;2024-03-17T00:19:49;2.50;;;2.05;;
12048;SDS011;6085;49.452;8.502;2024-03-17T00:23:51;2.78;;;2.35;;
12048;SDS011;6085;49.452;8.502;2024-03-17T00:27:53;2.53;;;2.20;;
12048;SDS011;6085;49.452;8.502;2024-03-17T00:31:58;2.35;;;2.00;;
12048;SDS011;6085;49.452;8.502;2024-03-17T00:36:01;3.10;;;2.33;;
12048;SDS011;6085;49.452;8.502;2024-03-17T00:40:03;3.13;;;2.50;;
12048;SDS011;6085;49.452;8.502;2024-03-17T00:44:07;2.70;;;2.30;;
12048;SDS011;6085;49.452;8.502;2024-03-17T00:48:08;2.65;;;2.45;;
12048;SDS011;6085;49.452;8.502;2024-03-17T00:52:12;3.03;;;2.10;;
12048;SDS011;6085;49.452;8.502;2024-03-17T00:56:14;4.35;;;3.00;;
12048;SDS011;6085;49.452;8.502;2024-03-17T01:00:16;3.03;;;2.63;;
12048;SDS011;6085;49.452;8.502;2024-03-17T01:04:19;2.78;;;1.98;;
12048;SDS011;6085;49.452;8.502;2024-03-17T01:08:22;3.47;;;2.78;;
12048;SDS011;6085;49.452;8.502;2024-03-17T01:12:24;3.75;;;2.05;;
12048;SDS011;6085;49.452;8.502;2024-03-17T01:16:26;2.55;;;2.35;;
12048;SDS011;6085;49.452;8.502;2024-03-17T01:20:28;2.20;;;2.03;;
12048;SDS011;6085;49.452;8.502;2024-03-17T01:24:31;2.17;;;1.98;;
12048;SDS011;6085;49.452;8.502;2024-03-17T01:28:34;2.28;;;2.08;;
12048;SDS011;6085;49.452;8.502;2024-03-17T01:32:36;3.45;;;2.30;;
12048;SDS011;6085;49.452;8.502;2024-03-17T01:36:37;2.38;;;2.10;;
12048;SDS011;6085;49.452;8.502;2024-03-17T01:40:40;2.40;;;2.20;;
12048;SDS011;6085;49.452;8.502;2024-03-17T01:44:43;2.95;;;1.83;;
12048;SDS011;6085;49.452;8.502;2024-03-17T01:48:47;2.72;;;2.53;;
12048;SDS011;6085;49.452;8.502;2024-03-17T01:52:50;2.63;;;2.42;;
12048;SDS011;6085;49.452;8.502;2024-03-17T01:56:55;3.75;;;2.35;;
12048;SDS011;6085;49.452;8.502;2024-03-17T02:00:57;2.90;;;2.53;;
12048;SDS011;6085;49.452;8.502;2024-03-17T02:04:59;2.33;;;2.10;;
12048;SDS011;6085;49.452;8.502;2024-03-17T02:09:01;3.63;;;2.42;;
12048;SDS011;6085;49.452;8.502;2024-03-17T02:13:04;3.50;;;2.28;;
12048;SDS011;6085;49.452;8.502;2024-03-17T02:17:06;4.10;;;2.75;;
12048;SDS011;6085;49.452;8.502;2024-03-17T02:21:08;3.58;;;2.20;;
12048;SDS011;6085;49.452;8.502;2024-03-17T02:25:11;4.45;;;2.67;;
12048;SDS011;6085;49.452;8.502;2024-03-17T02:29:13;3.60;;;2.28;;
12048;SDS011;6085;49.452;8.502;2024-03-17T02:33:15;3.60;;;2.47;;
12048;SDS011;6085;49.452;8.502;2024-03-17T02:37:17;2.20;;;1.92;;
12048;SDS011;6085;49.452;8.502;2024-03-17T02:41:20;6.25;;;3.55;;
12048;SDS011;6085;49.452;8.502;2024-03-17T02:45:21;4.05;;;3.13;;
12048;SDS011;6085;49.452;8.502;2024-03-17T02:49:23;3.58;;;2.67;;
12048;SDS011;6085;49.452;8.502;2024-03-17T02:53:25;4.65;;;3.33;;
12048;SDS011;6085;49.452;8.502;2024-03-17T02:57:28;4.72;;;3.28;;
12048;SDS011;6085;49.452;8.502;2024-03-17T03:01:32;5.90;;;3.38;;
12048;SDS011;6085;49.452;8.502;2024-03-17T03:05:34;6.63;;;3.22;;
12048;SDS011;6085;49.452;8.502;2024-03-17T03:09:36;6.13;;;3.20;;
12048;SDS011;6085;49.452;8.502;2024-03-17T03:13:40;5.15;;;3.72;;
12048;SDS011;6085;49.452;8.502;2024-03-17T03:17:43;3.35;;;2.67;;
12048;SDS011;6085;49.452;8.502;2024-03-17T03:21:44;3.70;;;2.90;;
12048;SDS011;6085;49.452;8.502;2024-03-17T03:25:46;3.55;;;2.88;;
12048;SDS011;6085;49.452;8.502;2024-03-17T03:29:50;4.13;;;3.10;;
12048;SDS011;6085;49.452;8.502;2024-03-17T03:33:52;3.95;;;3.03;;
12048;SDS011;6085;49.452;8.502;2024-03-17T03:37:54;4.25;;;3.08;;
12048;SDS011;6085;49.452;8.502;2024-03-17T03:41:56;3.55;;;2.95;;
12048;SDS011;6085;49.452;8.502;2024-03-17T03:46:00;3.72;;;2.25;;
12048;SDS011;6085;49.452;8.502;2024-03-17T03:50:03;4.25;;;2.95;;
12048;SDS011;6085;49.452;8.502;2024-03-17T03:54:05;2.65;;;2.38;;
12048;SDS011;6085;49.452;8.502;2024-03-17T03:58:07;2.83;;;2.28;;
12048;SDS011;6085;49.452;8.502;2024-03-17T04:02:10;3.88;;;2.60;;
12048;SDS011;6085;49.452;8.502;2024-03-17T04:06:12;2.38;;;2.10;;
12048;SDS011;6085;49.452;8.502;2024-03-17T04:10:16;2.83;;;2.05;;
12048;SDS011;6085;49.452;8.502;2024-03-17T04:14:19;3.33;;;2.10;;
12048;SDS011;6085;49.452;8.502;2024-03-17T04:18:22;4.40;;;2.30;;
12048;SDS011;6085;49.452;8.502;2024-03-17T04:22:25;2.92;;;2.50;;
12048;SDS011;6085;49.452;8.502;2024-03-17T04:26:27;3.40;;;2.35;;
12048;SDS011;6085;49.452;8.502;2024-03-17T04:30:29;3.42;;;2.25;;
12048;SDS011;6085;49.452;8.502;2024-03-17T04:34:32;3.47;;;2.10;;
12048;SDS011;6085;49.452;8.502;2024-03-17T04:38:34;3.95;;;2.22;;
12048;SDS011;6085;49.452;8.502;2024-03-17T04:42:37;2.75;;;2.42;;
12048;SDS011;6085;49.452;8.502;2024-03-17T04:46:40;3.30;;;2.83;;
12048;SDS011;6085;49.452;8.502;2024-03-17T04:50:43;2.92;;;2.55;;
12048;SDS011;6085;49.452;8.502;2024-03-17T04:54:45;2.90;;;2.65;;
12048;SDS011;6085;49.452;8.502;2024-03-17T04:58:47;4.20;;;3.63;;
12048;SDS011;6085;49.452;8.502;2024-03-17T05:02:49;2.15;;;1.95;;
12048;SDS011;6085;49.452;8.502;2024-03-17T05:06:52;3.40;;;2.58;;
12048;SDS011;6085;49.452;8.502;2024-03-17T05:10:57;2.35;;;2.00;;
12048;SDS011;6085;49.452;8.502;2024-03-17T05:14:59;3.63;;;2.95;;
12048;SDS011;6085;49.452;8.502;2024-03-17T05:19:01;3.65;;;2.95;;
12048;SDS011;6085;49.452;8.502;2024-03-17T05:23:05;3.35;;;2.10;;
12048;SDS011;6085;49.452;8.502;2024-03-17T05:27:06;4.22;;;2.95;;
12048;SDS011;6085;49.452;8.502;2024-03-17T05:31:08;2.47;;;2.28;;
12048;SDS011;6085;49.452;8.502;2024-03-17T05:35:10;3.17;;;2.28;;
12048;SDS011;6085;49.452;8.502;2024-03-17T05:39:14;3.05;;;2.33;;
12048;SDS011;6085;49.452;8.502;2024-03-17T05:43:15;2.78;;;2.45;;
12048;SDS011;6085;49.452;8.502;2024-03-17T05:47:17;2.75;;;2.45;;
12048;SDS011;6085;49.452;8.502;2024-03-17T05:51:19;2.95;;;2.25;;
12048;SDS011;6085;49.452;8.502;2024-03-17T05:55:23;3.13;;;2.45;;
12048;SDS011;6085;49.452;8.502;2024-03-17T05:59:24;5.70;;;2.67;;
12048;SDS011;6085;49.452;8.502;2024-03-17T06:03:26;3.08;;;2.17;;
12048;SDS011;6085;49.452;8.502;2024-03-17T06:07:28;2.63;;;2.30;;
12048;SDS011;6085;49.452;8.502;2024-03-17T06:11:32;3.38;;;2.35;;
12048;SDS011;6085;49.452;8.502;2024-03-17T06:15:37;2.17;;;1.73;;
12048;SDS011;6085;49.452;8.502;2024-03-17T06:19:39;2.83;;;1.80;;
12048;SDS011;6085;49.452;8.502;2024-03-17T06:23:41;2.40;;;1.90;;
12048;SDS011;6085;49.452;8.502;2024-03-17T06:27:44;3.33;;;2.58;;
12048;SDS011;6085;49.452;8.502;2024-03-17T06:31:46;4.30;;;2.58;;
12048;SDS011;6085;49.452;8.502;2024-03-17T06:35:49;4.13;;;2.67;;
12048;SDS011;6085;49.452;8.502;2024-03-17T06:39:51;2.88;;;2.47;;
12048;SDS011;6085;49.452;8.502;2024-03-17T06:43:54;3.97;;;3.03;;
12048;SDS011;6085;49.452;8.502;2024-03-17T06:47:56;3.22;;;2.63;;
12048;SDS011;6085;49.452;8.502;2024-03-17T06:51:58;4.63;;;3.58;;
12048;SDS011;6085;49.452;8.502;2024-03-17T06:56:00;3.47;;;3.17;;
12048;SDS011;6085;49.452;8.502;2024-03-17T07:00:04;3.10;;;2.60;;
12048;SDS011;6085;49.452;8.502;2024-03-17T07:04:13;5.80;;;3.60;;
12048;SDS011;6085;49.452;8.502;2024-03-17T07:08:16;3.90;;;3.20;;
12048;SDS011;6085;49.452;8.502;2024-03-17T07:12:19;4.97;;;3.90;;
12048;SDS011;6085;49.452;8.502;2024-03-17T07:16:23;5.72;;;3.65;;
12048;SDS011;6085;49.452;8.502;2024-03-17T07:20:25;4.90;;;4.13;;
12048;SDS011;6085;49.452;8.502;2024-03-17T07:24:27;6.30;;;4.53;;
12048;SDS011;6085;49.452;8.502;2024-03-17T07:28:30;5.78;;;4.03;;
12048;SDS011;6085;49.452;8.502;2024-03-17T07:32:34;6.13;;;4.80;;
12048;SDS011;6085;49.452;8.502;2024-03-17T07:36:36;5.68;;;4.53;;
12048;SDS011;6085;49.452;8.502;2024-03-17T07:40:38;4.13;;;3.35;;
12048;SDS011;6085;49.452;8.502;2024-03-17T07:44:40;4.68;;;3.58;;
12048;SDS011;6085;49.452;8.502;2024-03-17T07:48:46;3.55;;;3.10;;
12048;SDS011;6085;49.452;8.502;2024-03-17T07:52:49;3.95;;;3.10;;
12048;SDS011;6085;49.452;8.502;2024-03-17T07:56:50;3.45;;;2.60;;
12048;SDS011;6085;49.452;8.502;2024-03-17T08:00:53;3.70;;;2.92;;
12048;SDS011;6085;49.452;8.502;2024-03-17T08:05:01;2.75;;;2.42;;
12048;SDS011;6085;49.452;8.502;2024-03-17T08:09:05;2.90;;;2.30;;
12048;SDS011;6085;49.452;8.502;2024-03-17T08:13:08;2.60;;;2.40;;
12048;SDS011;6085;49.452;8.502;2024-03-17T08:17:10;3.90;;;2.63;;
12048;SDS011;6085;49.452;8.502;2024-03-17T08:21:16;3.17;;;2.58;;
12048;SDS011;6085;49.452;8.502;2024-03-17T08:25:18;2.78;;;2.25;;
12048;SDS011;6085;49.452;8.502;2024-03-17T08:29:20;2.75;;;2.20;;
12048;SDS011;6085;49.452;8.502;2024-03-17T08:33:22;2.80;;;2.47;;
12048;SDS011;6085;49.452;8.502;2024-03-17T08:37:25;2.67;;;2.30;;
12048;SDS011;6085;49.452;8.502;2024-03-17T08:41:27;2.40;;;2.10;;
12048;SDS011;6085;49.452;8.502;2024-03-17T08:45:30;2.22;;;2.03;;
12048;SDS011;6085;49.452;8.502;2024-03-17T08:49:32;2.38;;;2.15;;
12048;SDS011;6085;49.452;8.502;2024-03-17T08:53:35;3.00;;;2.05;;
12048;SDS011;6085;49.452;8.502;2024-03-17T08:57:38;4.38;;;2.38;;
12048;SDS011;6085;49.452;8.502;2024-03-17T09:01:40;2.53;;;2.30;;
12048;SDS011;6085;49.452;8.502;2024-03-17T09:05:43;3.00;;;2.50;;
12048;SDS011;6085;49.452;8.502;2024-03-17T09:09:47;2.22;;;2.10;;
12048;SDS011;6085;49.452;8.502;2024-03-17T09:13:49;2.40;;;2.20;;
12048;SDS011;6085;49.452;8.502;2024-03-17T09:17:51;2.25;;;2.00;;
12048;SDS011;6085;49.452;8.502;2024-03-17T09:21:53;2.40;;;2.05;;
12048;SDS011;6085;49.452;8.502;2024-03-17T09:25:57;3.50;;;2.40;;
12048;SDS011;6085;49.452;8.502;2024-03-17T09:30:01;2.10;;;1.73;;
12048;SDS011;6085;49.452;8.502;2024-03-17T09:34:09;2.40;;;1.83;;
12048;SDS011;6085;49.452;8.502;2024-03-17T09:38:11;3.13;;;2.40;;
12048;SDS011;6085;49.452;8.502;2024-03-17T09:42:16;2.85;;;2.25;;
12048;SDS011;6085;49.452;8.502;2024-03-17T09:46:19;2.40;;;2.08;;
12048;SDS011;6085;49.452;8.502;2024-03-17T09:50:21;2.78;;;2.55;;
12048;SDS011;6085;49.452;8.502;2024-03-17T09:54:23;4.10;;;2.58;;
12048;SDS011;6085;49.452;8.502;2024-03-17T09:58:26;3.33;;;2.17;;
12048;SDS011;6085;49.452;8.502;2024-03-17T10:02:28;5.10;;;2.63;;
12048;SDS011;6085;49.452;8.502;2024-03-17T10:06:30;3.35;;;2.40;;
12048;SDS011;6085;49.452;8.502;2024-03-17T10:10:33;2.55;;;2.10;;
12048;SDS011;6085;49.452;8.502;2024-03-17T10:14:38;3.05;;;2.65;;
12048;SDS011;6085;49.452;8.502;2024-03-17T10:18:40;3.40;;;2.40;;
12048;SDS011;6085;49.452;8.502;2024-03-17T10:27:06;2.40;;;2.08;;
12048;SDS011;6085;49.452;8.502;2024-03-17T10:31:14;4.50;;;2.80;;
12048;SDS011;6085;49.452;8.502;2024-03-17T10:35:25;2.65;;;2.40;;
12048;SDS011;6085;49.452;8.502;2024-03-17T10:39:31;2.95;;;2.42;;
12048;SDS011;6085;49.452;8.502;2024-03-17T10:43:34;5.60;;;2.65;;
12048;SDS011;6085;49.452;8.502;2024-03-17T10:47:39;4.03;;;2.72;;
12048;SDS011;6085;49.452;8.502;2024-03-17T10:51:45;3.13;;;2.28;;
12048;SDS011;6085;49.452;8.502;2024-03-17T10:55:51;2.65;;;2.40;;
12048;SDS011;6085;49.452;8.502;2024-03-17T11:00:05;2.47;;;2.28;;
12048;SDS011;6085;49.452;8.502;2024-03-17T11:04:10;2.63;;;2.35;;
12048;SDS011;6085;49.452;8.502;2024-03-17T11:08:15;2.55;;;2.35;;
12048;SDS011;6085;49.452;8.502;2024-03-17T11:16:42;2.30;;;2.08;;
12048;SDS011;6085;49.452;8.502;2024-03-17T11:20:56;2.75;;;1.55;;
12048;SDS011;6085;49.452;8.502;2024-03-17T11:25:04;3.10;;;2.20;;
12048;SDS011;6085;49.452;8.502;2024-03-17T11:29:38;3.65;;;2.58;;
12048;SDS011;6085;49.452;8.502;2024-03-17T11:33:46;2.55;;;2.25;;
12048;SDS011;6085;49.452;8.502;2024-03-17T11:37:51;3.33;;;2.63;;
12048;SDS011;6085;49.452;8.502;2024-03-17T11:41:54;3.33;;;2.45;;
12048;SDS011;6085;49.452;8.502;2024-03-17T11:45:55;3.15;;;2.70;;
12048;SDS011;6085;49.452;8.502;2024-03-17T11:49:57;3.10;;;1.92;;
12048;SDS011;6085;49.452;8.502;2024-03-17T11:54:03;2.45;;;2.25;;
12048;SDS011;6085;49.452;8.502;2024-03-17T11:58:05;2.17;;;1.95;;
12048;SDS011;6085;49.452;8.502;2024-03-17T12:02:17;2.25;;;1.90;;
12048;SDS011;6085;49.452;8.502;2024-03-17T12:06:20;2.13;;;1.98;;
12048;SDS011;6085;49.452;8.502;2024-03-17T12:10:23;2.42;;;2.22;;
12048;SDS011;6085;49.452;8.502;2024-03-17T12:14:25;2.92;;;2.63;;
12048;SDS011;6085;49.452;8.502;2024-03-17T12:18:28;5.13;;;2.85;;
12048;SDS011;6085;49.452;8.502;2024-03-17T12:22:35;3.70;;;2.60;;
12048;SDS011;6085;49.452;8.502;2024-03-17T12:26:39;5.03;;;2.97;;
12048;SDS011;6085;49.452;8.502;2024-03-17T12:30:41;2.42;;;2.22;;
12048;SDS011;6085;49.452;8.502;2024-03-17T12:34:44;2.25;;;2.05;;
12048;SDS011;6085;49.452;8.502;2024-03-17T12:38:46;1.98;;;1.85;;
12048;SDS011;6085;49.452;8.502;2024-03-17T12:42:50;2.50;;;2.30;;
12048;SDS011;6085;49.452;8.502;2024-03-17T12:46:54;2.80;;;2.17;;
12048;SDS011;6085;49.452;8.502;2024-03-17T12:50:57;2.33;;;2.10;;
12048;SDS011;6085;49.452;8.502;2024-03-17T12:54:59;2.65;;;2.28;;
12048;SDS011;6085;49.452;8.502;2024-03-17T12:59:17;2.28;;;1.85;;
12048;SDS011;6085;49.452;8.502;2024-03-17T13:03:50;1.77;;;1.67;;
12048;SDS011;6085;49.452;8.502;2024-03-17T13:07:52;2.67;;;2.42;;
12048;SDS011;6085;49.452;8.502;2024-03-17T13:11:56;2.50;;;2.00;;
12048;SDS011;6085;49.452;8.502;2024-03-17T13:15:59;2.53;;;1.98;;
12048;SDS011;6085;49.452;8.502;2024-03-17T13:20:02;2.03;;;1.88;;
12048;SDS011;6085;49.452;8.502;2024-03-17T13:24:06;2.30;;;1.90;;
12048;SDS011;6085;49.452;8.502;2024-03-17T13:28:09;7.90;;;2.50;;
12048;SDS011;6085;49.452;8.502;2024-03-17T13:32:12;2.25;;;2.05;;
12048;SDS011;6085;49.452;8.502;2024-03-17T13:36:15;1.90;;;1.70;;
12048;SDS011;6085;49.452;8.502;2024-03-17T13:40:18;2.40;;;1.95;;
12048;SDS011;6085;49.452;8.502;2024-03-17T13:44:20;1.70;;;1.60;;
12048;SDS011;6085;49.452;8.502;2024-03-17T13:48:23;2.40;;;1.98;;
12048;SDS011;6085;49.452;8.502;2024-03-17T13:52:25;3.13;;;2.10;;
12048;SDS011;6085;49.452;8.502;2024-03-17T13:56:28;2.58;;;1.77;;
12048;SDS011;6085;49.452;8.502;2024-03-17T14:00:30;2.05;;;1.85;;
12048;SDS011;6085;49.452;8.502;2024-03-17T14:04:37;1.50;;;1.40;;
12048;SDS011;6085;49.452;8.502;2024-03-17T14:08:39;2.15;;;1.80;;
12048;SDS011;6085;49.452;8.502;2024-03-17T14:12:41;1.67;;;1.58;;
12048;SDS011;6085;49.452;8.502;2024-03-17T14:16:43;2.40;;;1.95;;
12048;SDS011;6085;49.452;8.502;2024-03-17T14:20:46;2.03;;;1.58;;
12048;SDS011;6085;49.452;8.502;2024-03-17T14:24:48;2.80;;;1.77;;
12048;SDS011;6085;49.452;8.502;2024-03-17T14:28:50;1.77;;;1.58;;
12048;SDS011;6085;49.452;8.502;2024-03-17T14:32:54;2.95;;;1.90;;
12048;SDS011;6085;49.452;8.502;2024-03-17T14:36:57;2.65;;;2.00;;
12048;SDS011;6085;49.452;8.502;2024-03-17T14:40:59;1.48;;;1.23;;
12048;SDS011;6085;49.452;8.502;2024-03-17T14:45:01;1.17;;;1.05;;
12048;SDS011;6085;49.452;8.502;2024-03-17T14:49:04;2.50;;;1.30;;
12048;SDS011;6085;49.452;8.502;2024-03-17T14:53:07;1.90;;;1.73;;
12048;SDS011;6085;49.452;8.502;2024-03-17T14:57:09;2.55;;;1.60;;
12048;SDS011;6085;49.452;8.502;2024-03-17T15:01:12;2.33;;;1.60;;
12048;SDS011;6085;49.452;8.502;2024-03-17T15:05:14;1.70;;;1.60;;
12048;SDS011;6085;49.452;8.502;2024-03-17T15:09:20;1.77;;;1.40;;
12048;SDS011;6085;49.452;8.502;2024-03-17T15:13:22;1.30;;;1.20;;
12048;SDS011;6085;49.452;8.502;2024-03-17T15:17:24;1.20;;;1.00;;
12048;SDS011;6085;49.452;8.502;2024-03-17T15:21:27;1.67;;;1.30;;
12048;SDS011;6085;49.452;8.502;2024-03-17T15:25:31;1.77;;;1.67;;
12048;SDS011;6085;49.452;8.502;2024-03-17T15:29:32;1.00;;;1.00;;
12048;SDS011;6085;49.452;8.502;2024-03-17T15:33:35;1.67;;;1.55;;
12048;SDS011;6085;49.452;8.502;2024-03-17T15:37:40;1.42;;;1.33;;
12048;SDS011;6085;49.452;8.502;2024-03-17T15:41:44;1.17;;;1.10;;
12048;SDS011;6085;49.452;8.502;2024-03-17T15:45:45;1.23;;;1.13;;
12048;SDS011;6085;49.452;8.502;2024-03-17T15:49:47;1.48;;;1.38;;
12048;SDS011;6085;49.452;8.502;2024-03-17T15:53:49;0.63;;;0.63;;
12048;SDS011;6085;49.452;8.502;2024-03-17T15:57:54;5.97;;;1.67;;
12048;SDS011;6085;49.452;8.502;2024-03-17T16:01:56;1.40;;;1.30;;
12048;SDS011;6085;49.452;8.502;2024-03-17T16:05:59;2.22;;;1.42;;
12048;SDS011;6085;49.452;8.502;2024-03-17T16:10:08;0.98;;;0.93;;
12048;SDS011;6085;49.452;8.502;2024-03-17T16:14:15;2.42;;;1.52;;
12048;SDS011;6085;49.452;8.502;2024-03-17T16:18:17;1.42;;;0.98;;
12048;SDS011;6085;49.452;8.502;2024-03-17T16:22:19;1.38;;;1.23;;
12048;SDS011;6085;49.452;8.502;2024-03-17T16:26:21;1.10;;;1.10;;
12048;SDS011;6085;49.452;8.502;2024-03-17T16:30:25;0.93;;;0.82;;
12048;SDS011;6085;49.452;8.502;2024-03-17T16:34:27;0.88;;;0.85;;
12048;SDS011;6085;49.452;8.502;2024-03-17T16:38:29;3.70;;;1.08;;
12048;SDS011;6085;49.452;8.502;2024-03-17T16:42:31;0.90;;;0.90;;
12048;SDS011;6085;49.452;8.502;2024-03-17T16:51:06;1.30;;;1.00;;
12048;SDS011;6085;49.452;8.502;2024-03-17T16:55:08;1.02;;;0.98;;
12048;SDS011;6085;49.452;8.502;2024-03-17T16:59:10;1.35;;;1.25;;
12048;SDS011;6085;49.452;8.502;2024-03-17T17:03:13;1.10;;;1.10;;
12048;SDS011;6085;49.452;8.502;2024-03-17T17:07:15;1.10;;;1.10;;
12048;SDS011;6085;49.452;8.502;2024-03-17T17:11:17;1.30;;;1.20;;
12048;SDS011;6085;49.452;8.502;2024-03-17T17:15:19;1.10;;;1.00;;
12048;SDS011;6085;49.452;8.502;2024-03-17T17:19:23;2.50;;;1.40;;
12048;SDS011;6085;49.452;8.502;2024-03-17T17:23:25;1.52;;;1.35;;
12048;SDS011;6085;49.452;8.502;2024-03-17T17:27:27;1.10;;;0.95;;
12048;SDS011;6085;49.452;8.502;2024-03-17T17:31:30;1.15;;;1.10;;
12048;SDS011;6085;49.452;8.502;2024-03-17T17:35:34;2.17;;;1.38;;
12048;SDS011;6085;49.452;8.502;2024-03-17T17:39:36;1.38;;;1.27;;
12048;SDS011;6085;49.452;8.502;2024-03-17T17:43:38;3.67;;;1.27;;
12048;SDS011;6085;49.452;8.502;2024-03-17T17:47:40;1.20;;;1.10;;
12048;SDS011;6085;49.452;8.502;2024-03-17T17:51:44;1.75;;;1.38;;
12048;SDS011;6085;49.452;8.502;2024-03-17T17:55:45;1.00;;;1.00;;
12048;SDS011;6085;49.452;8.502;2024-03-17T17:59:47;1.05;;;1.05;;
12048;SDS011;6085;49.452;8.502;2024-03-17T18:03:49;3.85;;;1.60;;
12048;SDS011;6085;49.452;8.502;2024-03-17T18:07:53;1.50;;;1.40;;
12048;SDS011;6085;49.452;8.502;2024-03-17T18:11:55;1.70;;;1.50;;
12048;SDS011;6085;49.452;8.502;2024-03-17T18:15:57;1.60;;;1.50;;
12048;SDS011;6085;49.452;8.502;2024-03-17T18:20:00;1.25;;;1.20;;
12048;SDS011;6085;49.452;8.502;2024-03-17T18:24:07;2.20;;;1.95;;
12048;SDS011;6085;49.452;8.502;2024-03-17T18:28:09;3.95;;;1.80;;
12048;SDS011;6085;49.452;8.502;2024-03-17T18:32:10;3.53;;;1.77;;
12048;SDS011;6085;49.452;8.502;2024-03-17T18:36:12;3.85;;;2.30;;
12048;SDS011;6085;49.452;8.502;2024-03-17T18:40:16;2.50;;;1.75;;
12048;SDS011;6085;49.452;8.502;2024-03-17T18:44:19;2.70;;;1.77;;
12048;SDS011;6085;49.452;8.502;2024-03-17T18:48:21;2.10;;;2.00;;
12048;SDS011;6085;49.452;8.502;2024-03-17T18:52:23;5.25;;;3.03;;
12048;SDS011;6085;49.452;8.502;2024-03-17T18:56:27;4.95;;;2.67;;
12048;SDS011;6085;49.452;8.502;2024-03-17T19:00:30;1.95;;;1.58;;
12048;SDS011;6085;49.452;8.502;2024-03-17T19:04:32;4.90;;;2.05;;
12048;SDS011;6085;49.452;8.502;2024-03-17T19:08:34;3.00;;;1.90;;
12048;SDS011;6085;49.452;8.502;2024-03-17T19:12:37;2.40;;;2.05;;
12048;SDS011;6085;49.452;8.502;2024-03-17T19:16:39;1.80;;;1.70;;
12048;SDS011;6085;49.452;8.502;2024-03-17T19:20:41;2.17;;;1.98;;
12048;SDS011;6085;49.452;8.502;2024-03-17T19:24:43;2.78;;;1.70;;
12048;SDS011;6085;49.452;8.502;2024-03-17T19:28:46;1.75;;;1.65;;
12048;SDS011;6085;49.452;8.502;2024-03-17T19:32:49;1.83;;;1.73;;
12048;SDS011;6085;49.452;8.502;2024-03-17T19:36:51;1.98;;;1.88;;
12048;SDS011;6085;49.452;8.502;2024-03-17T19:40:53;2.25;;;2.05;;
12048;SDS011;6085;49.452;8.502;2024-03-17T19:44:58;4.22;;;2.70;;
12048;SDS011;6085;49.452;8.502;2024-03-17T19:49:00;3.70;;;3.00;;
12048;SDS011;6085;49.452;8.502;2024-03-17T19:53:03;3.75;;;2.70;;
12048;SDS011;6085;49.452;8.502;2024-03-17T19:57:05;3.33;;;2.83;;
12048;SDS011;6085;49.452;8.502;2024-03-17T20:01:09;3.53;;;2.40;;
12048;SDS011;6085;49.452;8.502;2024-03-17T20:05:11;5.10;;;2.70;;
12048;SDS011;6085;49.452;8.502;2024-03-17T20:09:14;2.35;;;2.15;;
12048;SDS011;6085;49.452;8.502;2024-03-17T20:13:16;3.30;;;2.22;;
12048;SDS011;6085;49.452;8.502;2024-03-17T20:17:19;2.13;;;2.00;;
12048;SDS011;6085;49.452;8.502;2024-03-17T20:21:23;3.03;;;2.55;;
12048;SDS011;6085;49.452;8.502;2024-03-17T20:25:25;2.95;;;2.22;;
12048;SDS011;6085;49.452;8.502;2024-03-17T20:29:27;4.97;;;2.72;;
12048;SDS011;6085;49.452;8.502;2024-03-17T20:33:31;3.40;;;2.63;;
12048;SDS011;6085;49.452;8.502;2024-03-17T20:37:33;6.72;;;3.17;;
12048;SDS011;6085;49.452;8.502;2024-03-17T20:41:36;4.57;;;3.08;;
12048;SDS011;6085;49.452;8.502;2024-03-17T20:45:38;5.10;;;2.70;;
12048;SDS011;6085;49.452;8.502;2024-03-17T20:49:41;3.50;;;3.00;;
12048;SDS011;6085;49.452;8.502;2024-03-17T20:53:43;4.25;;;2.60;;
12048;SDS011;6085;49.452;8.502;2024-03-17T20:57:45;2.50;;;2.28;;
12048;SDS011;6085;49.452;8.502;2024-03-17T21:01:49;5.78;;;3.20;;
12048;SDS011;6085;49.452;8.502;2024-03-17T21:05:52;3.47;;;2.92;;
12048;SDS011;6085;49.452;8.502;2024-03-17T21:09:54;3.03;;;2.50;;
12048;SDS011;6085;49.452;8.502;2024-03-17T21:13:57;2.95;;;2.13;;
12048;SDS011;6085;49.452;8.502;2024-03-17T21:17:58;3.35;;;2.80;;
12048;SDS011;6085;49.452;8.502;2024-03-17T21:22:02;2.30;;;2.10;;
12048;SDS011;6085;49.452;8.502;2024-03-17T21:26:06;2.10;;;1.90;;
12048;SDS011;6085;49.452;8.502;2024-03-17T21:30:09;4.05;;;1.98;;
12048;SDS011;6085;49.452;8.502;2024-03-17T21:34:11;1.90;;;1.80;;
12048;SDS011;6085;49.452;8.502;2024-03-17T21:38:15;5.10;;;1.88;;
12048;SDS011;6085;49.452;8.502;2024-03-17T21:42:17;2.83;;;2.00;;
12048;SDS011;6085;49.452;8.502;2024-03-17T21:46:19;2.95;;;2.00;;
12048;SDS011;6085;49.452;8.502;2024-03-17T21:50:22;2.60;;;1.52;;
12048;SDS011;6085;49.452;8.502;2024-03-17T21:54:25;2.03;;;1.88;;
12048;SDS011;6085;49.452;8.502;2024-03-17T21:58:27;2.33;;;2.13;;
12048;SDS011;6085;49.452;8.502;2024-03-17T22:02:29;4.05;;;2.10;;
12048;SDS011;6085;49.452;8.502;2024-03-17T22:06:31;2.63;;;1.88;;
12048;SDS011;6085;49.452;8.502;2024-03-17T22:10:34;3.08;;;1.95;;
12048;SDS011;6085;49.452;8.502;2024-03-17T22:14:36;2.30;;;2.03;;
12048;SDS011;6085;49.452;8.502;2024-03-17T22:18:38;2.83;;;1.75;;
12048;SDS011;6085;49.452;8.502;2024-03-17T22:22:42;3.42;;;2.00;;
12048;SDS011;6085;49.452;8.502;2024-03-17T22:26:45;2.85;;;2.17;;
12048;SDS011;6085;49.452;8.502;2024-03-17T22:30:51;1.83;;;1.67;;
12048;SDS011;6085;49.452;8.502;2024-03-17T22:34:53;2.40;;;2.20;;
12048;SDS011;6085;49.452;8.502;2024-03-17T22:38:55;3.17;;;2.40;;
12048;SDS011;6085;49.452;8.502;2024-03-17T22:42:58;4.85;;;2.17;;
12048;SDS011;6085;49.452;8.502;2024-03-17T22:47:00;2.13;;;1.88;;
12048;SDS011;6085;49.452;8.502;2024-03-17T22:51:05;2.45;;;1.83;;
12048;SDS011;6085;49.452;8.502;2024-03-17T22:55:08;2.15;;;1.90;;
12048;SDS011;6085;49.452;8.502;2024-03-17T22:59:11;2.08;;;1.95;;
12048;SDS011;6085;49.452;8.502;2024-03-17T23:03:13;2.17;;;1.98;;
12048;SDS011;6085;49.452;8.502;2024-03-17T23:07:15;1.70;;;1.40;;
12048;SDS011;6085;49.452;8.502;2024-03-17T23:11:17;4.03;;;2.35;;
12048;SDS011;6085;49.452;8.502;2024-03-17T23:15:21;1.80;;;1.70;;
12048;SDS011;6085;49.452;8.502;2024-03-17T23:19:23;2.60;;;1.88;;
12048;SDS011;6085;49.452;8.502;2024-03-17T23:23:25;2.10;;;1.60;;
12048;SDS011;6085;49.452;8.502;2024-03-17T23:27:27;1.85;;;1.48;;
12048;SDS011;6085;49.452;8.502;2024-03-17T23:31:30;2.50;;;2.30;;
12048;SDS011;6085;49.452;8.502;2024-03-17T23:35:34;1.92;;;1.80;;
12048;SDS011;6085;49.452;8.502;2024-03-17T23:39:39;2.03;;;1.85;;
12048;SDS011;6085;49.452;8.502;2024-03-17T23:43:41;1.92;;;1.77;;
12048;SDS011;6085;49.452;8.502;2024-03-17T23:47:45;3.25;;;2.13;;
12048;SDS011;6085;49.452;8.502;2024-03-17T23:51:47;2.13;;;1.98;;
12048;SDS011;6085;49.452;8.502;2024-03-17T23:55:49;3.15;;;2.08;;
12048;SDS011;6085;49.452;8.502;2024-03-17T23:59:50;4.88;;;2.00;;
